createdAt,value
2019-02-06T00:01:06.490Z,63.67
2019-02-06T00:03:36.323Z,56.55
2019-02-06T00:06:06.241Z,61.17
2019-02-06T00:08:35.852Z,55.15
2019-02-06T00:11:06.523Z,56.23
2019-02-06T00:13:36.067Z,53.23
2019-02-06T00:16:06.141Z,53.57
2019-02-06T00:18:36.066Z,54.08
2019-02-06T00:21:05.878Z,55.40
2019-02-06T00:23:35.439Z,52.65
2019-02-06T00:26:05.244Z,46.77
2019-02-06T00:28:35.059Z,47.20
2019-02-06T00:31:04.794Z,50.13
2019-02-06T00:33:34.304Z,59.03
2019-02-06T00:36:03.872Z,53.30
2019-02-06T00:38:33.481Z,49.73
2019-02-06T00:41:03.231Z,49.00
2019-02-06T00:43:32.721Z,47.78
2019-02-06T00:46:02.758Z,45.77
2019-02-06T00:48:32.330Z,50.50
2019-02-06T00:51:02.202Z,47.83
2019-02-06T00:53:31.705Z,49.77
2019-02-06T00:56:01.413Z,43.90
2019-02-06T00:58:30.921Z,47.78
2019-02-06T01:01:00.454Z,42.80
2019-02-06T01:03:29.961Z,47.37
2019-02-06T01:05:59.516Z,50.43
2019-02-06T01:08:29.133Z,48.80
2019-02-06T01:10:58.716Z,52.67
2019-02-06T01:13:28.532Z,49.20
2019-02-06T01:15:58.325Z,47.47
2019-02-06T01:18:27.829Z,47.00
2019-02-06T01:20:57.553Z,43.92
2019-02-06T01:23:27.118Z,44.77
2019-02-06T01:25:56.847Z,42.17
2019-02-06T01:28:26.285Z,47.07
2019-02-06T01:31:02.660Z,44.00
2019-02-06T01:33:32.423Z,43.50
2019-02-06T01:36:02.261Z,46.92
2019-02-06T01:38:31.867Z,41.67
2019-02-06T01:41:01.987Z,47.67
2019-02-06T01:43:31.618Z,45.25
2019-02-06T01:46:01.211Z,43.30
2019-02-06T01:48:30.780Z,40.80
2019-02-06T01:51:00.496Z,36.68
2019-02-06T01:53:30.002Z,38.67
2019-02-06T01:55:59.881Z,39.63
2019-02-06T01:58:29.769Z,37.80
2019-02-06T02:00:59.398Z,38.33
2019-02-06T02:03:29.259Z,37.93
2019-02-06T02:06:02.264Z,37.40
2019-02-06T02:08:32.376Z,37.47
2019-02-06T02:11:11.840Z,36.42
2019-02-06T02:13:41.525Z,36.97
2019-02-06T02:16:11.027Z,40.80
2019-02-06T02:18:40.601Z,38.00
2019-02-06T02:21:10.364Z,40.23
2019-02-06T02:23:40.556Z,40.43
2019-02-06T02:26:10.087Z,44.67
2019-02-06T02:28:39.590Z,39.13
2019-02-06T02:31:09.511Z,49.67
2019-02-06T02:33:39.619Z,43.30
2019-02-06T02:36:15.717Z,46.70
2019-02-06T02:38:40.325Z,42.33
2019-02-06T02:41:10.223Z,37.28
2019-02-06T02:43:40.241Z,46.98
2019-02-06T02:46:10.094Z,42.55
2019-02-06T02:48:39.830Z,44.05
2019-02-06T02:51:09.584Z,50.87
2019-02-06T02:53:39.075Z,46.88
2019-02-06T02:56:08.562Z,47.33
2019-02-06T02:58:38.070Z,48.33
2019-02-06T03:01:35.283Z,46.50
2019-02-06T03:04:28.657Z,47.07
2019-02-06T03:06:58.162Z,50.23
2019-02-06T03:09:27.717Z,48.33
2019-02-06T03:11:57.697Z,51.07
2019-02-06T03:14:27.273Z,51.50
2019-02-06T03:16:56.921Z,50.90
2019-02-06T03:19:27.031Z,50.77
2019-02-06T03:21:56.797Z,49.67
2019-02-06T03:24:26.335Z,48.47
2019-02-06T03:26:56.365Z,43.57
2019-02-06T03:29:25.897Z,43.43
2019-02-06T03:31:55.688Z,46.33
2019-02-06T03:34:25.810Z,44.13
2019-02-06T03:36:55.319Z,44.87
2019-02-06T03:39:25.317Z,44.80
2019-02-06T03:41:55.449Z,40.90
2019-02-06T03:44:25.060Z,42.13
2019-02-06T03:46:54.684Z,41.17
2019-02-06T03:49:24.487Z,44.57
2019-02-06T03:51:54.087Z,41.77
2019-02-06T03:54:24.060Z,43.23
2019-02-06T03:56:54.933Z,48.52
2019-02-06T03:59:24.669Z,49.73
2019-02-06T04:01:55.392Z,45.70
2019-02-06T04:04:25.030Z,51.37
2019-02-06T04:07:01.009Z,50.63
2019-02-06T04:09:27.012Z,40.90
2019-02-06T04:11:56.508Z,48.07
2019-02-06T04:14:26.272Z,43.97
2019-02-06T04:16:57.368Z,46.13
2019-02-06T04:19:26.899Z,45.07
2019-02-06T04:21:56.742Z,50.57
2019-02-06T04:24:26.803Z,45.30
2019-02-06T04:26:56.324Z,46.33
2019-02-06T04:29:25.812Z,46.97
2019-02-06T04:31:55.355Z,48.73
2019-02-06T04:34:25.163Z,47.20
2019-02-06T04:37:06.103Z,44.50
2019-02-06T04:39:26.547Z,42.03
2019-02-06T04:41:56.286Z,45.27
2019-02-06T04:44:26.282Z,43.40
2019-02-06T04:46:56.104Z,43.38
2019-02-06T04:49:25.876Z,44.27
2019-02-06T04:51:55.397Z,41.53
2019-02-06T04:54:25.710Z,43.13
2019-02-06T04:56:55.578Z,42.37
2019-02-06T04:59:25.393Z,41.65
2019-02-06T05:01:55.811Z,43.38
2019-02-06T05:04:25.702Z,41.60
2019-02-06T05:06:55.241Z,37.03
2019-02-06T05:09:25.317Z,40.83
2019-02-06T05:11:55.756Z,37.20
2019-02-06T05:14:25.685Z,40.67
2019-02-06T05:16:55.829Z,45.33
2019-02-06T05:19:25.719Z,34.92
2019-02-06T05:21:55.818Z,40.80
2019-02-06T05:24:25.583Z,38.33
2019-02-06T05:26:55.984Z,35.88
2019-02-06T05:29:26.167Z,36.13
2019-02-06T05:31:56.408Z,39.27
2019-02-06T05:34:26.201Z,38.00
2019-02-06T05:36:55.978Z,35.40
2019-02-06T05:39:25.807Z,39.77
2019-02-06T05:41:55.812Z,33.88
2019-02-06T05:44:26.266Z,34.30
2019-02-06T05:46:55.924Z,39.18
2019-02-06T05:49:26.916Z,38.33
2019-02-06T05:51:57.070Z,35.83
2019-02-06T05:54:26.600Z,39.53
2019-02-06T05:56:56.124Z,36.87
2019-02-06T05:59:26.416Z,36.68
2019-02-06T06:01:56.835Z,39.50
2019-02-06T06:04:26.442Z,33.57
2019-02-06T06:06:56.243Z,36.08
2019-02-06T06:09:26.778Z,36.03
2019-02-06T06:11:56.331Z,35.77
2019-02-06T06:14:26.695Z,35.97
2019-02-06T06:16:56.412Z,37.55
2019-02-06T06:19:26.512Z,38.63
2019-02-06T06:21:56.980Z,46.05
2019-02-06T06:24:26.748Z,39.53
2019-02-06T06:26:56.626Z,36.68
2019-02-06T06:29:26.672Z,38.97
2019-02-06T06:31:56.756Z,34.63
2019-02-06T06:34:26.951Z,32.80
2019-02-06T06:36:57.178Z,35.70
2019-02-06T06:39:26.789Z,36.28
2019-02-06T06:41:57.084Z,39.55
2019-02-06T06:44:27.310Z,33.15
2019-02-06T06:46:57.430Z,39.97
2019-02-06T06:49:26.995Z,35.67
2019-02-06T06:51:57.681Z,32.60
2019-02-06T06:54:27.992Z,34.63
2019-02-06T06:56:58.476Z,32.27
2019-02-06T06:59:28.083Z,31.87
2019-02-06T07:01:57.968Z,29.30
2019-02-06T07:04:27.451Z,34.40
2019-02-06T07:06:57.241Z,34.37
2019-02-06T07:09:27.568Z,34.40
2019-02-06T07:11:57.298Z,32.73
2019-02-06T07:14:27.347Z,27.10
2019-02-06T07:16:57.689Z,27.35
2019-02-06T07:19:27.738Z,27.37
2019-02-06T07:21:57.686Z,28.05
2019-02-06T07:24:27.748Z,29.47
2019-02-06T07:26:57.532Z,27.00
2019-02-06T07:29:27.692Z,27.30
2019-02-06T07:31:57.887Z,25.07
2019-02-06T07:34:27.732Z,28.73
2019-02-06T07:36:57.777Z,25.27
2019-02-06T07:39:27.862Z,27.50
2019-02-06T07:41:57.863Z,26.07
2019-02-06T07:44:27.850Z,27.27
2019-02-06T07:46:57.880Z,24.85
2019-02-06T07:49:28.489Z,23.42
2019-02-06T07:51:58.263Z,22.60
2019-02-06T07:54:28.313Z,22.83
2019-02-06T07:56:58.056Z,25.08
2019-02-06T07:59:28.088Z,19.45
2019-02-06T08:01:58.610Z,19.65
2019-02-06T08:04:28.623Z,25.67
2019-02-06T08:06:58.206Z,23.03
2019-02-06T08:09:28.745Z,24.87
2019-02-06T08:11:58.493Z,22.83
2019-02-06T08:14:28.793Z,19.75
2019-02-06T08:16:58.489Z,25.97
2019-02-06T08:22:08.743Z,21.50
2019-02-06T08:24:38.716Z,21.97
2019-02-06T08:27:08.297Z,23.07
2019-02-06T08:29:37.912Z,24.23
2019-02-06T08:32:07.754Z,22.30
2019-02-06T08:34:37.321Z,21.80
2019-02-06T08:37:07.388Z,21.70
2019-02-06T08:39:36.923Z,23.73
2019-02-06T08:42:06.591Z,22.52
2019-02-06T08:44:36.404Z,24.82
2019-02-06T08:47:05.919Z,23.03
2019-02-06T08:49:35.425Z,23.20
2019-02-06T08:52:04.995Z,21.57
2019-02-06T08:54:34.776Z,27.30
2019-02-06T08:57:04.582Z,25.17
2019-02-06T08:59:36.269Z,21.77
2019-02-06T09:02:05.479Z,26.77
2019-02-06T09:04:34.994Z,22.42
2019-02-06T09:07:04.617Z,22.00
2019-02-06T09:09:34.127Z,19.57
2019-02-06T09:12:03.871Z,22.93
2019-02-06T09:14:33.408Z,23.67
2019-02-06T09:17:03.063Z,23.40
2019-02-06T09:19:33.011Z,19.40
2019-02-06T09:22:02.800Z,20.00
2019-02-06T09:24:32.628Z,18.33
2019-02-06T09:27:03.458Z,21.07
2019-02-06T09:29:33.318Z,19.53
2019-02-06T09:32:03.190Z,22.77
2019-02-06T09:34:32.799Z,23.47
2019-02-06T09:37:05.087Z,22.93
2019-02-06T09:39:33.620Z,20.83
2019-02-06T09:42:03.199Z,23.17
2019-02-06T09:44:32.765Z,22.60
2019-02-06T09:47:02.589Z,26.47
2019-02-06T09:49:32.329Z,23.63
2019-02-06T09:52:01.904Z,23.87
2019-02-06T09:54:31.420Z,26.70
2019-02-06T09:57:00.965Z,21.50
2019-02-06T09:59:30.554Z,24.20
2019-02-06T10:02:00.250Z,19.37
2019-02-06T10:04:30.411Z,23.15
2019-02-06T10:07:00.224Z,19.27
2019-02-06T10:09:30.400Z,19.60
2019-02-06T10:12:00.504Z,20.23
2019-02-06T10:14:30.348Z,18.57
2019-02-06T10:17:00.759Z,22.32
2019-02-06T10:19:30.344Z,18.62
2019-02-06T10:22:00.905Z,21.23
2019-02-06T10:24:31.153Z,19.92
2019-02-06T10:27:00.668Z,23.27
2019-02-06T10:29:30.561Z,20.70
2019-02-06T10:32:00.619Z,20.70
2019-02-06T10:34:30.840Z,21.77
2019-02-06T10:37:00.627Z,24.33
2019-02-06T10:39:34.636Z,25.95
2019-02-06T10:42:02.258Z,23.33
2019-02-06T10:44:31.938Z,22.80
2019-02-06T10:47:01.425Z,22.53
2019-02-06T10:49:30.923Z,20.10
2019-02-06T10:52:00.885Z,23.18
2019-02-06T10:54:31.356Z,21.43
2019-02-06T10:57:01.292Z,20.67
2019-02-06T10:59:31.418Z,24.92
2019-02-06T11:02:01.214Z,29.18
2019-02-06T11:04:31.075Z,23.57
2019-02-06T11:07:01.546Z,22.85
2019-02-06T11:09:32.018Z,23.07
2019-02-06T11:12:01.727Z,21.73
2019-02-06T11:14:31.286Z,19.50
2019-02-06T11:17:01.510Z,18.98
2019-02-06T11:19:31.310Z,21.13
2019-02-06T11:22:02.093Z,22.60
2019-02-06T11:24:31.645Z,22.13
2019-02-06T11:27:01.638Z,23.70
2019-02-06T11:29:31.692Z,22.52
2019-02-06T11:32:01.571Z,22.27
2019-02-06T11:34:31.598Z,22.52
2019-02-06T11:37:02.005Z,21.50
2019-02-06T11:39:32.019Z,22.32
2019-02-06T11:42:01.920Z,21.67
2019-02-06T11:44:31.714Z,25.40
2019-02-06T11:47:02.289Z,23.25
2019-02-06T11:49:39.893Z,22.97
2019-02-06T11:52:09.559Z,20.30
2019-02-06T11:54:39.431Z,18.70
2019-02-06T11:57:09.240Z,19.20
2019-02-06T11:59:39.687Z,20.82
2019-02-06T12:02:09.251Z,15.93
2019-02-06T12:04:38.788Z,14.50
2019-02-06T12:07:08.381Z,14.83
2019-02-06T12:09:38.174Z,15.98
2019-02-06T12:12:07.926Z,13.13
2019-02-06T12:14:37.420Z,12.55
2019-02-06T12:17:07.155Z,16.40
2019-02-06T12:19:36.972Z,13.10
2019-02-06T12:22:06.557Z,15.27
2019-02-06T12:24:36.389Z,21.30
2019-02-06T12:27:06.531Z,14.10
2019-02-06T12:29:36.058Z,16.93
2019-02-06T12:32:05.953Z,15.47
2019-02-06T12:34:35.441Z,16.27
2019-02-06T12:37:05.136Z,13.30
2019-02-06T12:39:35.837Z,14.43
2019-02-06T12:42:05.513Z,16.07
2019-02-06T12:44:35.044Z,13.83
2019-02-06T12:47:05.125Z,17.03
2019-02-06T12:49:34.871Z,17.53
2019-02-06T12:52:04.452Z,14.87
2019-02-06T12:54:34.020Z,16.43
2019-02-06T12:57:03.531Z,15.53
2019-02-06T12:59:33.047Z,20.27
2019-02-06T13:02:03.062Z,15.43
2019-02-06T13:04:33.065Z,16.87
2019-02-06T13:07:03.163Z,16.50
2019-02-06T13:09:33.452Z,20.77
2019-02-06T13:12:03.218Z,16.70
2019-02-06T13:14:33.677Z,19.90
2019-02-06T13:17:03.345Z,19.75
2019-02-06T13:19:33.540Z,22.93
2019-02-06T13:22:03.557Z,15.65
2019-02-06T13:24:33.699Z,17.37
2019-02-06T13:27:03.877Z,17.40
2019-02-06T13:29:33.976Z,17.32
2019-02-06T13:32:03.866Z,17.52
2019-02-06T13:34:34.123Z,20.77
2019-02-06T13:37:04.047Z,18.83
2019-02-06T13:39:34.328Z,21.93
2019-02-06T13:42:05.598Z,17.10
2019-02-06T13:44:35.166Z,19.17
2019-02-06T13:47:05.692Z,18.53
2019-02-06T13:49:35.557Z,26.37
2019-02-06T13:52:05.707Z,18.33
2019-02-06T13:54:35.254Z,18.13
2019-02-06T13:57:05.075Z,20.73
2019-02-06T13:59:34.651Z,23.80
2019-02-06T14:02:04.808Z,20.17
2019-02-06T14:04:34.619Z,22.40
2019-02-06T14:07:04.202Z,18.23
2019-02-06T14:09:34.548Z,19.65
2019-02-06T14:12:04.552Z,17.97
2019-02-06T14:14:34.358Z,17.62
2019-02-06T14:17:04.766Z,19.20
2019-02-06T14:19:34.392Z,18.57
2019-02-06T14:22:05.063Z,17.50
2019-02-06T14:24:48.475Z,18.87
2019-02-06T14:27:56.191Z,18.57
2019-02-06T14:31:07.784Z,18.40
2019-02-06T14:34:10.714Z,18.37
2019-02-06T14:37:27.840Z,18.30
2019-02-06T14:40:25.608Z,21.43
2019-02-06T14:43:15.220Z,18.60
2019-02-06T14:46:26.263Z,16.97
2019-02-06T14:49:30.743Z,20.20
2019-02-06T14:52:24.949Z,23.70
2019-02-06T14:55:13.551Z,20.67
2019-02-06T14:58:04.756Z,30.17
2019-02-06T15:01:22.515Z,23.77
2019-02-06T15:04:45.051Z,17.17
2019-02-06T15:07:27.680Z,15.77
2019-02-06T15:10:37.363Z,19.63
2019-02-06T15:13:42.480Z,16.60
2019-02-06T15:16:49.423Z,20.13
2019-02-06T15:20:06.733Z,18.00
2019-02-06T15:23:16.473Z,17.98
2019-02-06T15:26:21.194Z,18.05
2019-02-06T15:29:27.105Z,19.00
2019-02-06T15:32:33.517Z,19.20
2019-02-06T15:35:27.331Z,23.60
2019-02-06T15:38:37.416Z,16.13
2019-02-06T15:41:35.326Z,18.77
2019-02-06T15:44:24.316Z,22.10
2019-02-06T15:47:29.911Z,24.60
2019-02-06T15:50:56.925Z,23.00
2019-02-06T15:53:52.751Z,24.43
2019-02-06T15:56:50.700Z,18.67
2019-02-06T16:00:03.640Z,19.13
2019-02-06T16:03:12.768Z,19.13
2019-02-06T16:06:05.772Z,22.05
2019-02-06T16:08:52.745Z,20.17
2019-02-06T16:12:04.969Z,19.40
2019-02-06T16:15:21.948Z,17.83
2019-02-06T16:18:08.685Z,16.17
2019-02-06T16:21:06.185Z,17.57
2019-02-06T16:23:55.573Z,18.63
2019-02-06T16:27:16.861Z,15.53
2019-02-06T16:30:15.949Z,15.60
2019-02-06T16:33:10.417Z,15.40
2019-02-06T16:36:02.403Z,13.17
2019-02-06T16:39:04.712Z,18.30
2019-02-06T16:41:59.369Z,13.40
2019-02-06T16:45:07.279Z,14.03
2019-02-06T16:48:14.717Z,14.93
2019-02-06T16:51:10.013Z,18.77
2019-02-06T16:54:14.230Z,13.83
2019-02-06T16:57:50.194Z,13.70
2019-02-06T17:00:36.971Z,18.77
2019-02-06T17:03:39.110Z,15.10
2019-02-06T17:06:21.583Z,18.27
2019-02-06T17:09:50.881Z,22.60
2019-02-06T17:12:38.846Z,16.57
2019-02-06T17:15:48.053Z,18.43
2019-02-06T17:18:44.405Z,15.67
2019-02-06T17:21:21.605Z,14.57
2019-02-06T17:24:17.411Z,18.00
2019-02-06T17:27:20.389Z,15.73
2019-02-06T17:30:01.168Z,16.70
2019-02-06T17:33:12.645Z,15.93
2019-02-06T17:36:05.968Z,16.23
2019-02-06T17:39:12.030Z,13.33
2019-02-06T17:42:15.388Z,14.30
2019-02-06T17:45:26.120Z,14.15
2019-02-06T17:48:08.268Z,14.20
2019-02-06T17:51:09.783Z,12.63
2019-02-06T17:53:47.598Z,18.23
2019-02-06T17:56:18.032Z,22.63
2019-02-06T17:58:47.589Z,19.60
2019-02-06T18:01:30.801Z,19.40
2019-02-06T18:04:07.640Z,18.17
2019-02-06T18:06:38.668Z,12.93
2019-02-06T18:09:13.539Z,16.47
2019-02-06T18:11:43.556Z,17.37
2019-02-06T18:14:13.518Z,16.63
2019-02-06T18:16:43.278Z,12.23
2019-02-06T18:19:12.808Z,17.50
2019-02-06T18:21:42.503Z,19.13
2019-02-06T18:24:12.302Z,15.00
2019-02-06T18:26:44.808Z,14.07
2019-02-06T18:29:14.355Z,16.13
2019-02-06T18:31:44.193Z,17.90
2019-02-06T18:34:13.990Z,16.30
2019-02-06T18:36:44.735Z,13.90
2019-02-06T18:39:15.369Z,17.23
2019-02-06T18:41:45.130Z,15.67
2019-02-06T18:44:15.212Z,13.87
2019-02-06T18:46:47.598Z,11.30
2019-02-06T18:49:17.168Z,15.60
2019-02-06T18:51:46.812Z,12.20
2019-02-06T18:54:16.660Z,17.10
2019-02-06T18:56:47.277Z,15.20
2019-02-06T18:59:16.990Z,15.00
2019-02-06T19:01:46.922Z,15.13
2019-02-06T19:04:18.915Z,15.43
2019-02-06T19:06:49.561Z,13.60
2019-02-06T19:09:19.328Z,17.33
2019-02-06T19:11:48.996Z,16.87
2019-02-06T19:14:19.044Z,15.07
2019-02-06T19:16:48.698Z,15.50
2019-02-06T19:19:25.048Z,14.67
2019-02-06T19:21:50.081Z,14.60
2019-02-06T19:24:19.576Z,15.23
2019-02-06T19:26:50.916Z,14.17
2019-02-06T19:29:21.408Z,13.93
2019-02-06T19:31:54.221Z,13.53
2019-02-06T19:34:24.464Z,15.37
2019-02-06T19:36:54.260Z,17.83
2019-02-06T19:39:25.347Z,14.30
2019-02-06T19:41:55.462Z,12.93
2019-02-06T19:44:25.360Z,14.30
2019-02-06T19:46:57.538Z,17.93
2019-02-06T19:49:27.393Z,13.20
2019-02-06T19:51:57.746Z,14.30
2019-02-06T19:54:27.296Z,11.63
2019-02-06T19:56:57.161Z,15.63
2019-02-06T19:59:26.928Z,11.20
2019-02-06T20:01:57.019Z,12.53
2019-02-06T20:04:26.897Z,11.47
2019-02-06T20:06:56.425Z,14.47
2019-02-06T20:09:27.067Z,22.27
2019-02-06T20:11:56.587Z,13.67
2019-02-06T20:14:26.842Z,14.83
2019-02-06T20:16:56.368Z,17.60
2019-02-06T20:19:26.729Z,10.23
2019-02-06T20:21:56.412Z,10.00
2019-02-06T20:24:26.236Z,12.17
2019-02-06T20:26:56.070Z,10.70
2019-02-06T20:29:25.630Z,12.67
2019-02-06T20:31:55.218Z,12.87
2019-02-06T20:34:25.408Z,10.93
2019-02-06T20:36:55.133Z,12.20
2019-02-06T20:39:25.924Z,12.10
2019-02-06T20:41:55.821Z,13.17
2019-02-06T20:44:25.454Z,11.73
2019-02-06T20:46:55.942Z,15.10
2019-02-06T20:49:25.552Z,11.50
2019-02-06T20:51:55.285Z,14.67
2019-02-06T20:54:25.499Z,14.23
2019-02-06T20:56:55.029Z,15.70
2019-02-06T20:59:24.834Z,12.60
2019-02-06T21:01:55.182Z,12.13
2019-02-06T21:04:26.226Z,13.73
2019-02-06T21:06:55.966Z,13.27
2019-02-06T21:09:25.602Z,16.53
2019-02-06T21:11:55.455Z,15.40
2019-02-06T21:14:24.956Z,14.33
2019-02-06T21:16:54.569Z,12.83
2019-02-06T21:19:24.131Z,13.47
2019-02-06T21:21:54.207Z,16.60
2019-02-06T21:24:23.895Z,15.37
2019-02-06T21:26:53.800Z,15.08
2019-02-06T21:29:23.353Z,16.30
2019-02-06T21:31:53.238Z,12.97
2019-02-06T21:34:22.901Z,16.97
2019-02-06T21:36:52.668Z,15.97
2019-02-06T21:39:22.736Z,15.80
2019-02-06T21:41:52.598Z,13.73
2019-02-06T21:44:22.272Z,14.23
2019-02-06T21:46:52.084Z,16.73
2019-02-06T21:49:21.900Z,17.40
2019-02-06T21:51:51.560Z,16.60
2019-02-06T21:54:21.920Z,15.35
2019-02-06T21:56:52.880Z,14.80
2019-02-06T21:59:22.879Z,20.88
2019-02-06T22:01:52.408Z,15.23
2019-02-06T22:04:22.587Z,15.97
2019-02-06T22:06:52.319Z,15.00
2019-02-06T22:09:21.971Z,14.67
2019-02-06T22:11:51.840Z,16.57
2019-02-06T22:14:21.756Z,18.25
2019-02-06T22:16:51.572Z,13.20
2019-02-06T22:19:21.604Z,14.68
2019-02-06T22:21:51.601Z,16.10
2019-02-06T22:24:21.585Z,17.32
2019-02-06T22:26:51.943Z,20.23
2019-02-06T22:29:21.625Z,15.98
2019-02-06T22:31:51.588Z,16.55
2019-02-06T22:34:21.598Z,17.62
2019-02-06T22:36:51.643Z,17.75
2019-02-06T22:39:21.626Z,16.02
2019-02-06T22:41:51.722Z,15.40
2019-02-06T22:44:21.744Z,17.92
2019-02-06T22:46:51.986Z,16.30
2019-02-06T22:49:21.932Z,16.75
2019-02-06T22:51:52.048Z,16.80
2019-02-06T22:54:22.271Z,16.90
2019-02-06T22:56:53.090Z,16.97
2019-02-06T23:01:56.321Z,18.00
2019-02-06T23:04:26.676Z,14.50
2019-02-06T23:06:56.307Z,15.48
2019-02-06T23:09:26.158Z,14.77
2019-02-06T23:11:55.734Z,14.15
2019-02-06T23:14:25.892Z,13.23
2019-02-06T23:16:56.017Z,16.13
2019-02-06T23:19:25.562Z,14.43
2019-02-06T23:21:55.998Z,14.20
2019-02-06T23:24:25.839Z,14.40
2019-02-06T23:26:56.383Z,19.73
2019-02-06T23:29:25.881Z,16.23
2019-02-06T23:31:56.681Z,12.17
2019-02-06T23:34:26.185Z,13.17
2019-02-06T23:36:56.730Z,16.03
2019-02-06T23:39:26.310Z,14.77
2019-02-06T23:41:56.162Z,17.63
2019-02-06T23:44:29.040Z,12.70
2019-02-06T23:46:56.920Z,15.13
2019-02-06T23:49:26.450Z,12.17
2019-02-06T23:51:56.436Z,15.77
2019-02-06T23:54:25.938Z,16.67
2019-02-06T23:56:56.114Z,13.70
2019-02-06T23:59:25.853Z,14.50
